Terminal Aerodrome Forecast
Issued by NWS

Home | Current Version | Previous Version | Text Only | Print | Product List | Glossary On
Versions: 1 2 3 4 5 6 7 8 9 10 11 12 13 14 15 16 17 18 19 20 21 22 23 24 25 26 27 28 29 30 31 32 33 34 35 36
000
FTUS43 KDTX 270303 AAA
TAFYIP
TAF AMD
KYIP 270303Z 2703/2724 18010KT P6SM SCT045 BKN120 OVC200
      TEMPO 2703/2706 5SM SHRA OVC045
     FM271000 22007KT 5SM BR SCT015
     FM271600 24013G20KT P6SM SCT050=

USA.gov is the U.S. government's official web portal to all federal, state and local government web resources and services.